Malone, Texas
Current Conditions -  °F | °C
As of 1:35 AM on Saturday 25 Oct 2014 (Local Time) from KINJ Reporting Station
Clear Clear  
Wind Chill: 67°   Ceiling: Unl
Heat Index: 67°   Visibility: 10mi
Dew Point: 57°   Wind: 7mph
Humidity: 70%   Direction: 170°S
Pressure: 30.12"   Gusts: NA
Location:  31.92°N, 96.89°W
Report Text: KINJ 250635Z AUTO 17006KT 10SM CLR 19/14 A3012 RMK AO2 T01920137
Loading
Personal Weather Stations






























Interactive Weather Map New forecast layout! Learn more

10-Day Weather Forecast

Advertisements
Track Severe Weather on mobile